KOSH/OSH METAR and TAF weather

Enter ICAO airport designator
Station Type Date Time Source
KOSH METAR 2022/01/27 22:53 UTC NOAA

KOSH 272253Z 32005KT 10SM CLR M05/M10 A3015 RMK AO2 SLP230 T10501100


Station Type Date Time Source
KOSH Decoded METAR 2022/01/27 22:53 UTC NOAA

WITTMAN REGIONAL AIRPORT, WI, United States (KOSH) 43-58N 88-33W 248M
Jan 27, 2022 - 05:53 PM EST / 2022.01.27 2253 UTC
Wind: from the NW (320 degrees) at 6 MPH (5 KT):0
Visibility: 10 mile(s):0
Sky conditions: clear
Temperature: 23.0 F (-5.0 C)
Windchill: 15 F (-9 C):1
Dew Point: 14.0 F (-10.0 C)
Relative Humidity: 67%
Pressure (altimeter): 30.15 in. Hg (1020 hPa)
ob: KOSH 272253Z 32005KT 10SM CLR M05/M10 A3015 RMK AO2 SLP230 T10501100
cycle: 23

Station Type Date Time Source
KOSH TAF 2021/08/04 18:24 UTC NOAA

TAF KOSH 041722Z 0418/0518 VRB04KT P6SM SCT060
FM050200 18005KT P6SM SCT070
FM051200 22005KT P6SM FEW250

Example: see airport list